Time;durP1;ratioP1;P1;durP2;ratioP2;P2;SDS_P1;SDS_P2;PMS_P1;PMS_P2;Temp;Humidity;BMP_temperature;BMP_pressure;BME280_temperature;BME280_humidity;BME280_pressure;Samples;Min_cycle;Max_cycle;Signal;HPM_P1;HPM_P2
2023/03/04 00:02:22;;;;;;;120.33;62.37;;;;;;;5.46;100.00;99485.63;5111104;28;20202;-60
2023/03/04 00:04:50;;;;;;;112.20;60.53;;;;;;;5.46;100.00;99487.34;5111205;28;20198;-60
2023/03/04 00:07:18;;;;;;;114.53;61.03;;;;;;;5.45;100.00;99488.22;5111493;28;20198;-63
2023/03/04 00:09:45;;;;;;;112.90;58.37;;;;;;;5.44;100.00;99483.94;5110864;28;20227;-64
2023/03/04 00:12:13;;;;;;;124.70;63.00;;;;;;;5.48;100.00;99475.31;5111127;28;20199;-62
2023/03/04 00:14:40;;;;;;;116.83;60.30;;;;;;;5.39;100.00;99478.00;5110939;28;20198;-59
2023/03/04 00:17:07;;;;;;;119.23;60.37;;;;;;;5.45;100.00;99475.34;5110991;28;20194;-63
2023/03/04 00:19:34;;;;;;;121.10;61.13;;;;;;;5.49;100.00;99479.63;5110939;28;20230;-64
2023/03/04 00:22:01;;;;;;;121.93;63.03;;;;;;;5.51;100.00;99462.44;5111178;28;20191;-63
2023/03/04 00:24:30;;;;;;;109.20;60.37;;;;;;;5.55;100.00;99469.25;5111045;28;20190;-63
2023/03/04 00:26:56;;;;;;;112.63;57.23;;;;;;;5.48;100.00;99480.47;5110813;28;20205;-63
2023/03/04 00:29:23;;;;;;;117.83;58.67;;;;;;;5.43;100.00;99483.06;5110635;28;20727;-63
2023/03/04 00:31:50;;;;;;;112.97;60.03;;;;;;;5.37;100.00;99482.28;5110874;28;20203;-64
2023/03/04 00:34:17;;;;;;;123.93;60.13;;;;;;;5.31;100.00;99479.75;5110721;28;20197;-63
2023/03/04 00:36:44;;;;;;;116.37;62.07;;;;;;;5.35;100.00;99474.56;5110532;28;20208;-63
2023/03/04 00:39:11;;;;;;;120.53;62.13;;;;;;;5.43;100.00;99474.50;5110697;28;20580;-59
2023/03/04 00:41:40;;;;;;;123.93;62.27;;;;;;;5.43;100.00;99471.94;5110385;28;20198;-64
2023/03/04 00:44:07;;;;;;;107.63;59.23;;;;;;;5.47;100.00;99458.16;5110332;28;20195;-64
2023/03/04 00:46:34;;;;;;;111.47;58.87;;;;;;;5.48;100.00;99460.75;5110113;28;20207;-64
2023/03/04 00:49:01;;;;;;;119.97;59.70;;;;;;;5.31;100.00;99448.88;5110858;28;20215;-60
2023/03/04 00:51:28;;;;;;;118.80;58.93;;;;;;;5.34;100.00;99462.56;5110582;28;20194;-65
2023/03/04 00:53:55;;;;;;;118.47;61.27;;;;;;;5.39;100.00;99470.28;5110342;28;20194;-61
2023/03/04 00:56:22;;;;;;;110.00;56.57;;;;;;;5.41;100.00;99466.81;5110054;28;20207;-64
2023/03/04 00:58:50;;;;;;;117.17;60.20;;;;;;;5.36;100.00;99465.13;5109983;28;20198;-61
2023/03/04 01:01:17;;;;;;;115.83;59.00;;;;;;;5.32;100.00;99476.31;5110519;28;20221;-63
2023/03/04 01:03:44;;;;;;;113.43;57.83;;;;;;;5.28;100.00;99474.66;5110152;28;20198;-59
2023/03/04 01:06:11;;;;;;;112.37;57.20;;;;;;;5.34;100.00;99460.00;5110228;28;20202;-64
2023/03/04 01:08:38;;;;;;;102.27;55.30;;;;;;;5.45;100.00;99475.34;5109977;28;20200;-64
2023/03/04 01:11:05;;;;;;;105.93;57.33;;;;;;;5.57;100.00;99461.50;5110136;28;20205;-64
2023/03/04 01:13:32;;;;;;;111.23;58.97;;;;;;;5.55;100.00;99464.09;5110193;28;20579;-64
2023/03/04 01:16:02;;;;;;;105.23;57.10;;;;;;;5.56;100.00;99462.38;5110015;28;20285;-64
2023/03/04 01:18:29;;;;;;;110.60;58.90;;;;;;;5.50;100.00;99462.44;5110015;28;20199;-63
2023/03/04 01:20:56;;;;;;;109.77;59.93;;;;;;;5.61;100.00;99458.06;5109927;28;20198;-60
2023/03/04 01:23:23;;;;;;;118.67;60.73;;;;;;;5.52;100.00;99448.69;5109886;28;20205;-60
2023/03/04 01:25:49;;;;;;;117.93;60.03;;;;;;;5.45;100.00;99455.59;5109484;28;20205;-60
2023/03/04 01:28:16;;;;;;;110.33;58.93;;;;;;;5.47;100.00;99448.72;5110120;28;20712;-64
2023/03/04 01:30:43;;;;;;;108.47;58.17;;;;;;;5.54;100.00;99454.66;5109428;28;20218;-60
2023/03/04 01:33:11;;;;;;;110.60;59.30;;;;;;;5.45;100.00;99444.47;5109823;28;20198;-64
2023/03/04 01:35:38;;;;;;;109.03;57.47;;;;;;;5.56;100.00;99450.34;5109693;28;20693;-59
2023/03/04 01:38:05;;;;;;;108.20;56.43;;;;;;;5.56;100.00;99447.78;5109912;28;20198;-59
2023/03/04 01:40:33;;;;;;;108.80;54.50;;;;;;;5.55;100.00;99443.50;5109383;28;20198;-61
2023/03/04 01:43:00;;;;;;;100.77;54.90;;;;;;;5.55;100.00;99450.38;5109465;28;20202;-64
2023/03/04 01:45:27;;;;;;;97.97;53.20;;;;;;;5.56;100.00;99444.34;5109780;28;20195;-61
2023/03/04 01:47:54;;;;;;;101.73;51.73;;;;;;;5.52;100.00;99446.13;5109261;28;20272;-64
2023/03/04 01:50:27;;;;;;;112.97;54.20;;;;;;;5.56;100.00;99449.50;5109551;28;20701;-60
2023/03/04 01:52:54;;;;;;;101.73;52.47;;;;;;;5.57;100.00;99441.78;5109172;28;20194;-60
2023/03/04 01:55:23;;;;;;;93.67;51.27;;;;;;;5.56;100.00;99442.63;5109594;28;20197;-60
2023/03/04 01:57:51;;;;;;;89.63;47.77;;;;;;;5.42;100.00;99436.75;5109582;28;20221;-60
2023/03/04 02:00:24;;;;;;;88.87;47.13;;;;;;;5.50;100.00;99424.69;5109753;28;20202;-64
2023/03/04 02:02:54;;;;;;;85.40;45.27;;;;;;;5.43;100.00;99421.31;5109405;28;20198;-63
2023/03/04 02:05:23;;;;;;;82.20;44.80;;;;;;;5.52;100.00;99430.69;5109334;28;20198;-63
2023/03/04 02:07:52;;;;;;;93.37;45.07;;;;;;;5.39;100.00;99447.97;5109295;28;20201;-64
2023/03/04 02:10:19;;;;;;;82.33;44.20;;;;;;;5.36;100.00;99439.41;5113089;28;20305;-64
2023/03/04 02:12:46;;;;;;;87.87;44.30;;;;;;;5.35;100.00;99432.53;5113550;28;20733;-60
2023/03/04 02:15:13;;;;;;;85.00;44.70;;;;;;;5.39;100.00;99431.66;5113503;28;20206;-64
2023/03/04 02:17:41;;;;;;;86.00;44.37;;;;;;;5.39;100.00;99434.22;5113523;28;20560;-63
2023/03/04 02:20:20;;;;;;;80.57;45.00;;;;;;;5.36;100.00;99432.53;5113431;28;20206;-60
2023/03/04 02:22:58;;;;;;;81.80;44.10;;;;;;;5.24;100.00;99424.06;5113107;28;20198;-65
2023/03/04 02:25:33;;;;;;;79.63;44.97;;;;;;;5.34;100.00;99423.97;5113319;28;20191;-59
2023/03/04 02:28:01;;;;;;;91.40;45.73;;;;;;;5.45;100.00;99427.28;5113291;28;20584;-64
2023/03/04 02:30:28;;;;;;;82.17;44.90;;;;;;;5.51;100.00;99428.97;5112823;28;20225;-60
2023/03/04 02:32:55;;;;;;;83.73;44.93;;;;;;;5.55;100.00;99424.63;5112933;28;20198;-64
2023/03/04 02:35:22;;;;;;;78.00;43.37;;;;;;;5.51;100.00;99423.81;5113231;28;20194;-59
2023/03/04 02:37:49;;;;;;;82.03;44.60;;;;;;;5.49;100.00;99420.41;5112990;28;20201;-59
2023/03/04 02:40:23;;;;;;;85.90;45.47;;;;;;;5.49;100.00;99412.69;5113070;28;20278;-60
2023/03/04 02:42:50;;;;;;;84.97;46.43;;;;;;;5.39;100.00;99413.66;5113207;28;20562;-60
2023/03/04 02:45:47;;;;;;;81.90;47.33;;;;;;;5.31;100.00;99412.84;5112806;28;20203;-59
2023/03/04 02:48:15;;;;;;;86.10;47.57;;;;;;;5.23;100.00;99412.94;5065776;28;20331;-60
2023/03/04 02:50:45;;;;;;;96.43;48.77;;;;;;;5.21;100.00;99408.66;5112797;28;20214;-60
2023/03/04 02:53:12;;;;;;;89.03;47.10;;;;;;;5.14;100.00;99407.88;5112800;28;20197;-59
2023/03/04 02:55:41;;;;;;;87.47;47.60;;;;;;;5.11;100.00;99403.59;5112862;28;20582;-59
2023/03/04 02:58:08;;;;;;;87.67;46.87;;;;;;;5.17;100.00;99402.69;5112639;28;20318;-60
2023/03/04 03:00:34;;;;;;;89.67;47.93;;;;;;;5.25;100.00;99407.78;5112604;28;20702;-59
2023/03/04 03:03:03;;;;;;;79.03;45.80;;;;;;;5.17;100.00;99419.84;5112572;28;20686;-64
2023/03/04 03:05:31;;;;;;;88.03;47.53;;;;;;;5.05;100.00;99419.09;5112622;28;20544;-64
2023/03/04 03:07:58;;;;;;;84.63;48.17;;;;;;;5.05;100.00;99426.81;5112265;28;20202;-64
2023/03/04 03:10:26;;;;;;;87.03;47.70;;;;;;;5.08;100.00;99429.34;5112343;28;20217;-59
2023/03/04 03:12:53;;;;;;;89.20;47.00;;;;;;;4.98;100.00;99432.00;5112373;28;20205;-63
2023/03/04 03:15:20;;;;;;;84.23;46.77;;;;;;;4.95;100.00;99427.75;5112672;28;20191;-64
2023/03/04 03:17:47;;;;;;;87.23;47.70;;;;;;;4.94;100.00;99432.91;5112153;28;20194;-64
2023/03/04 03:20:17;;;;;;;84.90;47.30;;;;;;;4.93;100.00;99439.75;5111915;28;20191;-63
2023/03/04 03:22:44;;;;;;;89.10;49.47;;;;;;;4.88;100.00;99431.22;5112331;28;20701;-64
2023/03/04 03:25:12;;;;;;;93.17;48.47;;;;;;;4.97;100.00;99438.84;5112614;28;20285;-64
2023/03/04 03:27:39;;;;;;;90.60;47.77;;;;;;;4.78;100.00;99406.44;5111982;28;20194;-60
2023/03/04 03:30:09;;;;;;;96.50;46.60;;;;;;;5.01;100.00;99448.25;5111979;28;20222;-63
2023/03/04 03:32:36;;;;;;;83.50;46.43;;;;;;;4.97;100.00;99446.56;5111723;28;20191;-60
2023/03/04 03:35:03;;;;;;;84.47;45.30;;;;;;;4.97;100.00;99451.72;5111745;28;20213;-59
2023/03/04 03:37:32;;;;;;;80.40;45.43;;;;;;;5.04;100.00;99447.41;5111972;28;20198;-63
2023/03/04 03:39:59;;;;;;;84.13;43.40;;;;;;;5.01;100.00;99444.84;5111973;28;20193;-63
2023/03/04 03:42:25;;;;;;;79.03;43.70;;;;;;;4.82;100.00;99444.13;5111881;28;20195;-63
2023/03/04 03:44:52;;;;;;;80.47;44.43;;;;;;;4.77;100.00;99442.44;5111631;28;20576;-61
2023/03/04 03:47:19;;;;;;;82.33;44.30;;;;;;;4.83;100.00;99435.56;5111549;28;20226;-64
2023/03/04 03:49:46;;;;;;;88.27;44.60;;;;;;;4.82;100.00;99436.41;5111467;28;20222;-64
2023/03/04 03:52:13;;;;;;;89.40;47.30;;;;;;;4.85;100.00;99435.53;5111853;28;20564;-61
2023/03/04 03:54:42;;;;;;;83.63;44.33;;;;;;;4.78;100.00;99432.13;5111195;28;20187;-59
2023/03/04 03:57:09;;;;;;;79.93;44.33;;;;;;;4.84;100.00;99434.69;5111595;28;20331;-60
2023/03/04 03:59:36;;;;;;;83.77;44.30;;;;;;;4.83;100.00;99440.69;5111408;28;20692;-61
2023/03/04 04:02:02;;;;;;;85.90;45.37;;;;;;;4.63;100.00;99439.94;5111231;28;20739;-60
2023/03/04 04:04:29;;;;;;;86.00;46.07;;;;;;;4.62;100.00;99433.97;5111251;28;20240;-64
2023/03/04 04:06:56;;;;;;;85.87;46.73;;;;;;;4.58;100.00;99426.28;5111339;28;20584;-63
2023/03/04 04:09:23;;;;;;;83.03;45.63;;;;;;;4.60;100.00;99434.84;5111213;28;20194;-63
2023/03/04 04:11:51;;;;;;;85.47;46.03;;;;;;;4.69;100.00;99434.78;5110960;28;20228;-60
2023/03/04 04:14:18;;;;;;;76.67;42.90;;;;;;;4.77;100.00;99421.88;5111301;28;20202;-60
2023/03/04 04:16:45;;;;;;;90.17;48.57;;;;;;;4.74;100.00;99427.88;5110936;28;20203;-60
2023/03/04 04:19:17;;;;;;;85.93;46.17;;;;;;;4.72;100.00;99433.06;5111049;28;20198;-60
2023/03/04 04:21:44;;;;;;;86.67;46.20;;;;;;;4.75;100.00;99440.72;5110832;28;20198;-64
2023/03/04 04:24:11;;;;;;;85.97;47.13;;;;;;;4.83;100.00;99432.97;5111160;28;20572;-60
2023/03/04 04:26:37;;;;;;;78.10;44.50;;;;;;;4.80;100.00;99440.69;5110968;28;20662;-60
2023/03/04 04:29:07;;;;;;;86.67;45.97;;;;;;;4.86;100.00;99440.66;5110922;28;20211;-62
2023/03/04 04:31:34;;;;;;;83.43;45.50;;;;;;;4.87;100.00;99450.06;5109930;28;20227;-63
2023/03/04 04:34:01;;;;;;;87.57;45.23;;;;;;;4.86;100.00;99448.38;5110775;28;20285;-64
2023/03/04 04:36:28;;;;;;;82.27;45.43;;;;;;;4.71;100.00;99453.63;5110871;28;20690;-63
2023/03/04 04:38:56;;;;;;;84.40;43.53;;;;;;;4.72;100.00;99451.06;5110752;28;20684;-60
2023/03/04 04:41:25;;;;;;;82.50;44.07;;;;;;;4.70;100.00;99447.63;5110783;28;20662;-60
2023/03/04 04:43:52;;;;;;;80.30;44.37;;;;;;;4.82;100.00;99456.97;5110270;28;20194;-63
2023/03/04 04:46:21;;;;;;;82.33;45.03;;;;;;;4.74;100.00;99448.44;5110725;28;20198;-63
2023/03/04 04:48:48;;;;;;;84.83;45.07;;;;;;;4.76;100.00;99446.72;5070106;28;20656;-63
2023/03/04 04:51:15;;;;;;;82.70;42.07;;;;;;;4.73;100.00;99449.34;5069937;28;20708;-63
2023/03/04 04:53:42;;;;;;;83.03;44.20;;;;;;;4.68;100.00;99453.63;5069619;28;20192;-63
2023/03/04 04:56:11;;;;;;;82.23;41.43;;;;;;;4.62;100.00;99462.25;5069643;28;20210;-60
2023/03/04 04:58:38;;;;;;;75.93;41.37;;;;;;;4.43;100.00;99462.34;5069423;28;20211;-59
2023/03/04 05:01:05;;;;;;;76.07;41.83;;;;;;;4.26;100.00;99454.72;5069635;28;20199;-59
2023/03/04 05:03:35;;;;;;;74.17;40.93;;;;;;;4.36;100.00;99466.66;5069567;28;20199;-59
2023/03/04 05:06:03;;;;;;;72.43;39.90;;;;;;;4.36;100.00;99461.53;5069690;28;20204;-60
2023/03/04 05:08:30;;;;;;;74.97;40.37;;;;;;;4.30;100.00;99462.41;5069493;28;20204;-60
2023/03/04 05:10:57;;;;;;;74.17;36.87;;;;;;;4.24;100.00;99466.72;5069044;28;20225;-62
2023/03/04 05:13:24;;;;;;;77.50;36.87;;;;;;;4.20;100.00;99478.72;5069734;28;20202;-63
2023/03/04 05:15:52;;;;;;;65.43;33.87;;;;;;;4.00;100.00;99467.66;5069313;28;20582;-63
2023/03/04 05:18:19;;;;;;;100.27;36.07;;;;;;;4.06;100.00;99475.34;5069621;28;20224;-60
2023/03/04 05:20:50;;;;;;;99.10;33.60;;;;;;;4.01;100.00;99477.94;5068966;28;20200;-59
2023/03/04 05:23:17;;;;;;;86.93;29.87;;;;;;;3.80;100.00;99482.28;5069403;28;20668;-62
2023/03/04 05:25:44;;;;;;;98.23;32.93;;;;;;;3.45;100.00;99478.03;5069092;28;20200;-59
2023/03/04 05:28:11;;;;;;;105.10;31.87;;;;;;;3.53;100.00;99473.75;5069265;28;20196;-63
2023/03/04 05:30:39;;;;;;;70.03;32.63;;;;;;;3.63;100.00;99478.00;5069215;28;20227;-62
2023/03/04 05:33:07;;;;;;;133.57;36.47;;;;;;;3.61;100.00;99478.88;5069135;28;20257;-59
2023/03/04 05:35:34;;;;;;;188.90;40.40;;;;;;;3.59;100.00;99494.28;5051856;28;20459;-55
2023/03/04 05:38:03;;;;;;;98.87;37.23;;;;;;;3.56;100.00;99486.59;5047978;28;20603;-55
2023/03/04 05:40:31;;;;;;;126.27;41.10;;;;;;;3.64;100.00;99474.59;5064510;28;20217;-55
2023/03/04 05:42:58;;;;;;;125.13;40.07;;;;;;;3.67;100.00;99470.31;5068232;28;20223;-56
2023/03/04 05:45:26;;;;;;;131.93;38.97;;;;;;;3.68;100.00;99461.75;5068836;28;20306;-56
2023/03/04 05:47:53;;;;;;;150.40;41.30;;;;;;;3.68;100.00;99469.47;5093946;28;20317;-61
2023/03/04 05:50:21;;;;;;;113.60;38.77;;;;;;;3.64;100.00;99479.72;5108810;28;20240;-62
2023/03/04 05:52:48;;;;;;;134.43;44.07;;;;;;;3.41;100.00;99486.59;5108681;28;20222;-62
2023/03/04 05:55:17;;;;;;;106.67;40.37;;;;;;;3.27;100.00;99470.38;5108797;28;20615;-61
2023/03/04 05:57:45;;;;;;;110.60;44.07;;;;;;;3.44;100.00;99490.88;5109432;28;20222;-55
2023/03/04 06:00:13;;;;;;;107.30;43.10;;;;;;;3.45;100.00;99488.31;5109058;28;20222;-61
2023/03/04 06:02:42;;;;;;;102.10;46.30;;;;;;;3.39;100.00;99488.28;5109255;28;20588;-61
2023/03/04 06:05:10;;;;;;;145.87;44.93;;;;;;;3.40;100.00;99492.56;5109121;28;20253;-61
2023/03/04 06:07:37;;;;;;;117.87;44.27;;;;;;;3.42;100.00;99487.44;5109233;28;20305;-61
2023/03/04 06:10:05;;;;;;;110.43;41.40;;;;;;;3.54;100.00;99496.00;5108936;28;20631;-61
2023/03/04 06:12:34;;;;;;;78.07;38.73;;;;;;;3.53;100.00;99496.84;5109297;28;20728;-62
2023/03/04 06:15:01;;;;;;;70.13;35.70;;;;;;;3.61;100.00;99497.69;5109308;28;20681;-60
2023/03/04 06:17:29;;;;;;;75.07;34.73;;;;;;;3.59;100.00;99506.25;5109529;28;20297;-55
2023/03/04 06:19:56;;;;;;;95.17;36.67;;;;;;;3.60;100.00;99501.13;5115417;28;20222;-54
2023/03/04 06:22:22;;;;;;;74.23;34.17;;;;;;;3.62;100.00;99499.38;5113833;28;20237;-55
2023/03/04 06:24:50;;;;;;;72.37;35.17;;;;;;;3.70;100.00;99494.28;5109086;28;20584;-54
2023/03/04 06:27:16;;;;;;;72.57;34.83;;;;;;;3.74;100.00;99503.66;5096319;28;20207;-55
2023/03/04 06:29:45;;;;;;;76.37;34.67;;;;;;;3.79;100.00;99490.81;5089430;28;20198;-54
2023/03/04 06:32:12;;;;;;;75.47;36.10;;;;;;;3.96;100.00;99507.03;5089304;28;20219;-55
2023/03/04 06:34:39;;;;;;;84.77;35.83;;;;;;;4.06;100.00;99513.03;5089367;28;20583;-55
2023/03/04 06:37:06;;;;;;;67.27;35.53;;;;;;;4.13;100.00;99515.56;5089709;28;20195;-55
2023/03/04 06:39:32;;;;;;;79.53;37.20;;;;;;;4.24;100.00;99513.81;5089431;28;20195;-55
2023/03/04 06:42:00;;;;;;;76.00;34.60;;;;;;;4.34;100.00;99514.63;5089310;28;20192;-55
2023/03/04 06:44:27;;;;;;;82.73;39.43;;;;;;;4.46;100.00;99524.00;5089316;28;20203;-56
2023/03/04 06:46:55;;;;;;;81.27;37.47;;;;;;;4.54;100.00;99522.25;5089027;28;20615;-65
2023/03/04 06:49:22;;;;;;;84.30;38.13;;;;;;;4.52;100.00;99517.13;5089498;28;20291;-65
2023/03/04 06:51:49;;;;;;;80.77;38.00;;;;;;;4.67;100.00;99519.63;5089347;28;20742;-66
2023/03/04 06:54:16;;;;;;;76.50;37.63;;;;;;;4.81;100.00;99526.41;5089325;28;20210;-63
2023/03/04 06:56:43;;;;;;;77.70;38.00;;;;;;;4.94;100.00;99523.78;5092692;28;20195;-62
2023/03/04 06:59:10;;;;;;;75.90;37.13;;;;;;;5.06;100.00;99526.28;5092800;28;20195;-61
2023/03/04 07:01:36;;;;;;;88.90;40.13;;;;;;;5.14;100.00;99531.34;5093368;28;20633;-67
2023/03/04 07:04:05;;;;;;;99.40;42.23;;;;;;;5.30;100.00;99529.53;5093846;28;20604;-67
2023/03/04 07:06:32;;;;;;;80.97;40.03;;;;;;;5.37;100.00;99521.75;5093088;28;20205;-66
2023/03/04 07:08:59;;;;;;;80.97;39.30;;;;;;;5.51;100.00;99531.09;5093035;28;20203;-63
2023/03/04 07:11:27;;;;;;;89.80;39.77;;;;;;;5.63;100.00;99529.28;5093034;28;20284;-63
2023/03/04 07:13:54;;;;;;;82.27;40.80;;;;;;;5.74;100.00;99534.31;5092537;28;20195;-76
2023/03/04 07:16:23;;;;;;;79.93;38.73;;;;;;;5.81;100.00;99539.38;5092702;28;20199;-67
2023/03/04 07:18:50;;;;;;;88.03;40.63;;;;;;;5.93;100.00;99532.44;5092744;28;20278;-71
2023/03/04 07:21:19;;;;;;;90.17;41.27;;;;;;;6.05;100.00;99530.59;5093088;28;20221;-65
2023/03/04 07:23:46;;;;;;;87.43;42.03;;;;;;;6.12;100.00;99533.97;5093274;28;20723;-67
2023/03/04 07:26:13;;;;;;;80.77;39.87;;;;;;;6.15;100.00;99526.19;5103269;28;20671;-69
2023/03/04 07:28:42;;;;;;;86.07;42.70;;;;;;;6.31;100.00;99532.91;5113037;28;20203;-63
2023/03/04 07:31:11;;;;;;;91.10;43.57;;;;;;;6.41;100.00;99529.34;5113079;28;20218;-71
2023/03/04 07:33:38;;;;;;;85.70;41.57;;;;;;;6.54;100.00;99528.34;5112809;28;20690;-62
2023/03/04 07:36:05;;;;;;;94.23;42.97;;;;;;;6.64;100.00;99525.63;5112591;28;20964;-60
2023/03/04 07:38:34;;;;;;;86.20;44.67;;;;;;;6.63;100.00;99529.09;5112819;28;20662;-69
2023/03/04 07:41:02;;;;;;;97.53;49.07;;;;;;;6.61;100.00;99530.81;5113285;28;20675;-61
2023/03/04 07:43:29;;;;;;;93.03;46.33;;;;;;;6.72;100.00;99528.97;5112606;28;20221;-62
2023/03/04 07:46:00;;;;;;;89.23;46.00;;;;;;;6.80;100.00;99519.38;5114641;27;20285;-63
2023/03/04 07:48:28;;;;;;;93.37;44.47;;;;;;;6.89;100.00;99520.09;5112122;28;20238;-63
2023/03/04 07:51:17;;;;;;;88.30;43.37;;;;;;;6.87;100.00;99521.03;5111627;28;20195;-63
2023/03/04 07:53:47;;;;;;;83.27;43.07;;;;;;;6.80;100.00;99511.66;5106139;28;20201;-60
2023/03/04 07:56:16;;;;;;;82.87;41.83;;;;;;;6.86;100.00;99517.59;5112061;28;20204;-62
2023/03/04 07:58:43;;;;;;;87.03;41.60;;;;;;;6.88;100.00;99515.81;5111906;28;20194;-62
2023/03/04 08:01:11;;;;;;;92.53;43.80;;;;;;;6.72;100.00;99498.00;5105971;28;20219;-62
2023/03/04 08:03:39;;;;;;;83.33;42.53;;;;;;;6.79;100.00;99509.94;5090730;28;20219;-63
2023/03/04 08:06:07;;;;;;;83.43;39.87;;;;;;;6.72;100.00;99490.28;5091251;28;20302;-63
2023/03/04 08:08:35;;;;;;;80.40;40.53;;;;;;;6.89;100.00;99516.69;5090867;28;20239;-63
2023/03/04 08:11:06;;;;;;;85.33;42.23;;;;;;;6.93;100.00;99511.47;5091061;28;20652;-64
2023/03/04 08:13:33;;;;;;;80.83;41.73;;;;;;;6.90;100.00;99502.91;5093998;28;20222;-65
2023/03/04 08:16:00;;;;;;;89.50;42.47;;;;;;;6.83;100.00;99503.88;5109383;28;20236;-64
2023/03/04 08:18:27;;;;;;;94.60;41.73;;;;;;;6.86;100.00;99511.59;5110072;28;20592;-63
2023/03/04 08:20:54;;;;;;;80.20;41.97;;;;;;;7.00;100.00;99506.22;5105261;28;20596;-62
2023/03/04 08:23:21;;;;;;;87.13;43.03;;;;;;;7.16;100.00;99523.19;5107067;27;20378;-63
2023/03/04 08:25:48;;;;;;;89.17;44.83;;;;;;;6.96;100.00;99491.66;5109365;28;20205;-64
2023/03/04 08:28:17;;;;;;;85.23;43.33;;;;;;;7.11;100.00;99527.56;5109405;28;20193;-61
2023/03/04 08:30:44;;;;;;;144.63;59.07;;;;;;;7.20;100.00;99517.97;5109586;28;20205;-61
2023/03/04 08:33:11;;;;;;;125.00;58.17;;;;;;;7.42;100.00;99520.22;5110392;28;20215;-62
2023/03/04 08:35:38;;;;;;;114.23;54.17;;;;;;;7.50;100.00;99526.09;5111568;28;20696;-65
2023/03/04 08:38:05;;;;;;;122.00;68.53;;;;;;;7.67;100.00;99531.84;5111578;28;20195;-62
2023/03/04 08:40:32;;;;;;;104.83;53.20;;;;;;;7.82;100.00;99523.81;5111727;28;20202;-65
2023/03/04 08:42:59;;;;;;;100.97;50.30;;;;;;;7.89;100.00;99517.69;5110951;28;20198;-66
2023/03/04 08:45:28;;;;;;;112.73;53.03;;;;;;;8.10;100.00;99523.31;5111307;28;20258;-65
2023/03/04 08:47:55;;;;;;;106.83;53.27;;;;;;;8.16;100.00;99523.19;5110174;28;20237;-69
2023/03/04 08:50:21;;;;;;;96.00;49.30;;;;;;;8.08;100.00;99527.66;5111091;28;20199;-63
2023/03/04 08:52:48;;;;;;;108.37;52.43;;;;;;;8.20;100.00;99525.72;5111344;28;20222;-66
2023/03/04 08:55:15;;;;;;;104.53;50.10;;;;;;;8.35;100.00;99527.19;5109901;28;20667;-69
2023/03/04 08:57:42;;;;;;;91.20;48.30;;;;;;;8.38;100.00;99525.38;5090597;28;20221;-65
2023/03/04 09:00:11;;;;;;;84.00;47.13;;;;;;;8.43;100.00;99524.44;5090383;28;20287;-68
2023/03/04 09:02:39;;;;;;;82.23;46.13;;;;;;;8.48;100.00;99515.69;5090847;28;20267;-69
2023/03/04 09:05:07;;;;;;;86.30;48.27;;;;;;;8.24;100.00;99514.41;5090524;28;20230;-69
2023/03/04 09:07:34;;;;;;;93.23;47.80;;;;;;;8.18;100.00;99506.78;5091539;28;20199;-65
2023/03/04 09:10:01;;;;;;;96.43;48.33;;;;;;;8.31;100.00;99500.53;5110580;28;20217;-62
2023/03/04 09:12:28;;;;;;;93.47;47.37;;;;;;;8.56;100.00;99505.22;5110607;28;20236;-61
2023/03/04 09:14:55;;;;;;;90.87;49.33;;;;;;;8.76;100.00;99499.59;5110145;28;20198;-60
2023/03/04 09:17:22;;;;;;;101.63;50.67;;;;;;;8.91;100.00;99505.31;5110238;28;20190;-59
2023/03/04 09:19:50;;;;;;;98.20;49.90;;;;;;;9.09;100.00;99496.25;5110297;28;20203;-59
2023/03/04 09:22:17;;;;;;;119.07;61.38;;;;;;;9.15;100.00;99485.75;5109685;28;20441;-63
2023/03/04 09:24:44;;;;;;;118.77;58.33;;;;;;;9.20;100.00;99491.69;5110300;28;20571;-60
2023/03/04 09:27:11;;;;;;;111.80;55.80;;;;;;;9.36;100.00;99497.34;5110389;28;20195;-63
2023/03/04 09:29:38;;;;;;;111.90;55.23;;;;;;;9.53;100.00;99490.00;5110359;28;20281;-65
2023/03/04 09:32:05;;;;;;;105.60;50.17;;;;;;;9.63;100.00;99488.88;5110517;28;20222;-60
2023/03/04 09:34:32;;;;;;;93.43;50.03;;;;;;;9.51;100.00;99493.50;5110107;28;20198;-63
2023/03/04 09:37:00;;;;;;;100.23;48.97;;;;;;;9.46;100.00;99484.13;5108853;28;20293;-63
2023/03/04 09:39:27;;;;;;;100.33;50.20;;;;;;;9.54;100.00;99490.84;5109369;28;20205;-60
2023/03/04 09:41:58;;;;;;;92.60;50.57;;;;;;;9.78;100.00;99487.66;5108721;28;20230;-60
2023/03/04 09:44:28;;;;;;;110.00;54.07;;;;;;;10.03;100.00;99488.72;5109638;28;20194;-62
2023/03/04 09:46:59;;;;;;;115.40;53.20;;;;;;;10.02;100.00;99489.59;5109875;28;20665;-62
2023/03/04 09:49:26;;;;;;;111.60;54.53;;;;;;;10.10;100.00;99485.03;5109914;28;20199;-61
2023/03/04 09:51:59;;;;;;;107.30;52.40;;;;;;;10.38;100.00;99487.78;5109633;28;20225;-61
2023/03/04 09:54:55;;;;;;;103.70;52.80;;;;;;;10.38;100.00;99486.91;5110113;28;20204;-62
2023/03/04 09:57:29;;;;;;;90.33;49.97;;;;;;;10.60;100.00;99482.81;5110182;28;20199;-61
2023/03/04 10:00:07;;;;;;;99.67;49.40;;;;;;;10.74;100.00;99487.56;5110045;28;20198;-60
2023/03/04 10:02:45;;;;;;;98.33;52.70;;;;;;;10.83;100.00;99479.53;5110063;28;20190;-62
2023/03/04 10:05:18;;;;;;;98.60;51.80;;;;;;;10.98;100.00;99479.03;5110175;28;20212;-61
2023/03/04 10:07:48;;;;;;;90.00;49.20;;;;;;;11.23;100.00;99473.94;5109993;28;20579;-61
2023/03/04 10:10:22;;;;;;;66.57;42.27;;;;;;;11.13;100.00;99477.72;5109935;28;20194;-61
2023/03/04 10:12:51;;;;;;;64.07;38.87;;;;;;;11.12;100.00;99478.59;5109600;28;20218;-59
2023/03/04 10:15:23;;;;;;;55.70;36.40;;;;;;;11.09;100.00;99470.91;5109740;28;20198;-60
2023/03/04 10:17:57;;;;;;;60.33;35.40;;;;;;;11.12;100.00;99466.47;5109836;28;20289;-62
2023/03/04 10:20:28;;;;;;;52.93;34.10;;;;;;;11.17;100.00;99472.34;5110030;28;20194;-60
2023/03/04 10:22:58;;;;;;;51.20;34.47;;;;;;;11.39;100.00;99462.16;5109590;28;20226;-61
2023/03/04 10:25:29;;;;;;;53.40;32.83;;;;;;;11.22;100.00;99452.28;5110330;28;20285;-61
2023/03/04 10:28:01;;;;;;;49.43;31.90;;;;;;;11.28;100.00;99459.03;5109630;28;20197;-62
2023/03/04 10:30:37;;;;;;;49.07;32.73;;;;;;;11.42;100.00;99464.63;5111824;28;20205;-62
2023/03/04 10:33:13;;;;;;;46.17;32.17;;;;;;;11.48;100.00;99450.59;5113581;28;20222;-61
2023/03/04 10:35:43;;;;;;;54.20;33.20;;;;;;;11.54;100.00;99443.41;5110811;28;20277;-61
2023/03/04 10:38:13;;;;;;;54.50;34.47;;;;;;;11.50;100.00;99441.00;5101677;28;20203;-62
2023/03/04 10:40:42;;;;;;;60.77;36.13;;;;;;;11.49;100.00;99423.69;5093357;28;20203;-60
2023/03/04 10:43:15;;;;;;;54.03;33.60;;;;;;;11.32;100.00;99426.00;5093281;28;20191;-59
2023/03/04 10:45:43;;;;;;;54.30;34.00;;;;;;;11.42;100.00;99425.63;5095758;27;20260;-61
2023/03/04 10:48:20;;;;;;;53.33;33.20;;;;;;;11.55;100.00;99423.47;5134311;27;20283;-60
2023/03/04 10:50:47;;;;;;;51.37;34.53;;;;;;;11.51;100.00;99412.31;5133563;27;20692;-59
2023/03/04 10:53:28;;;;;;;58.87;36.40;;;;;;;11.58;100.00;99412.97;5134125;27;20601;-62
2023/03/04 10:55:57;;;;;;;64.43;37.57;;;;;;;11.56;100.00;99414.78;5133665;27;20209;-60
2023/03/04 10:58:23;;;;;;;62.07;38.07;;;;;;;11.41;100.00;99405.75;5133951;27;20194;-60
2023/03/04 11:01:01;;;;;;;59.47;37.80;;;;;;;11.48;100.00;99406.41;5133541;27;20200;-60
2023/03/04 11:03:34;;;;;;;57.10;36.03;;;;;;;11.50;100.00;99400.25;5133686;27;20280;-60
2023/03/04 11:06:06;;;;;;;54.20;35.73;;;;;;;11.41;100.00;99397.09;5133704;27;20673;-60
2023/03/04 11:08:33;;;;;;;64.50;39.33;;;;;;;11.16;100.00;99392.75;5133586;27;20198;-61
2023/03/04 11:11:01;;;;;;;64.07;39.97;;;;;;;11.09;100.00;99390.38;5133306;27;20608;-61
2023/03/04 11:13:30;;;;;;;62.80;40.47;;;;;;;11.17;100.00;99380.63;5133468;27;20619;-60
2023/03/04 11:15:59;;;;;;;62.20;39.17;;;;;;;11.08;100.00;99357.50;5133272;27;20285;-60
2023/03/04 11:18:35;;;;;;;62.33;37.13;;;;;;;11.22;100.00;99369.16;5133449;27;20186;-61
2023/03/04 11:21:02;;;;;;;62.63;39.53;;;;;;;11.33;100.00;99360.13;5133139;27;20285;-57